Latest Weather Observations for Merriwa

IDN60801

Issued at 3:03 pm EST Wednesday 1 June 2016 (issued every 30 minutes, with the page automatically refreshed every 10 minutes)

About weather observations | Map of weather stations | Latest weather observations for NSW | Other Formats
Station Details ID: 061287 Name: MERRIWA (ROSCOMMON) Lat: -32.19 Lon: 150.17 Height: 375.0 m
Data from the previous 72 hours. | See also: Recent months at Merriwa
Date/Time
EST
Temp
°C
App
Temp
°C
Dew
Point
Rel
Hum
%
Delta-T
°C
Wind Press
QNH
hPa
Press
MSL
hPa
Rain
since 9 am
mm
Dir
 
Spd
km/h
Gust
km/h
Spd
kts
Gust
kts
01/03:00pm 16.6 13.8 8.6 59 4.2 ESE 13 19 7 10 1024.8 1025.4 0.0
01/02:30pm 16.7 13.2 8.7 59 4.2 ESE 17 22 9 12 1025.0 1025.6 0.0
01/02:00pm 17.4 13.6 9.1 58 4.4 SE 19 28 10 15 1025.2 1025.8 0.0
01/01:30pm 16.7 13.4 9.6 63 3.8 ESE 17 26 9 14 1025.6 1026.2 0.0
01/01:00pm 15.7 12.3 9.1 65 3.4 ESE 17 22 9 12 1026.1 1026.6 0.0
01/12:30pm 15.2 12.2 9.1 67 3.2 E 15 22 8 12 1026.5 1027.0 0.0
01/12:00pm 15.8 12.6 9.9 68 3.1 E 17 24 9 13 1027.1 1027.7 0.0
01/11:30am 13.4 10.1 9.5 77 2.0 ESE 17 26 9 14 1027.6 1028.2 0.0
01/11:00am 13.0 9.3 9.6 80 1.8 ESE 19 24 10 13 1028.2 1028.8 0.0
01/10:30am 12.7 9.8 9.7 82 1.6 E 15 20 8 11 1028.8 1029.3 0.0
01/10:26am 12.6 9.4 9.8 83 1.5 E 17 26 9 14 1028.8 1029.3 0.0
01/10:00am 12.2 8.6 9.8 85 1.2 ESE 19 28 10 15 1028.8 1029.3 0.0
01/09:30am 11.7 8.9 10.1 90 0.8 E 15 22 8 12 1029.0 1029.1 0.0
01/09:00am 11.2 7.6 9.8 91 0.7 ESE 19 26 10 14 1028.9 1029.0 0.0
01/08:30am 11.2 8.0 10.0 92 0.6 ESE 17 24 9 13 1028.8 1028.9 0.0
01/08:09am 11.2 9.7 10.4 95 0.4 ESE 9 13 5 7 1028.7 1028.8 0.0
01/08:00am 10.9 8.9 10.1 95 0.4 ESE 11 13 6 7 1028.6 1028.7 0.0
01/07:50am 10.9 9.3 10.3 96 0.3 ESE 9 13 5 7 1028.6 1028.7 0.0
01/07:30am 10.6 8.6 10.1 97 0.3 ESE 11 15 6 8 1028.4 1028.6 0.0
01/07:18am 10.3 8.6 10.0 98 0.2 E 9 13 5 7 1028.3 1028.5 0.0
01/07:00am 10.3 8.6 10.0 98 0.2 E 9 13 5 7 1028.1 1028.2 0.0
01/06:56am 10.3 8.6 10.0 98 0.2 E 9 13 5 7 1028.1 1028.2 0.0
01/06:30am 10.3 8.6 10.0 98 0.2 E 9 13 5 7 1027.8 1027.9 0.0
01/06:20am 10.4 8.4 10.1 98 0.2 E 11 13 6 7 1027.8 1027.9 0.0
01/06:00am 10.4 8.7 9.9 97 0.3 E 9 13 5 7 1027.6 1027.7 0.0
01/05:39am 10.5 8.9 10.2 98 0.2 E 9 13 5 7 1027.4 1027.5 0.0
01/05:30am 10.6 9.0 10.3 98 0.2 E 9 13 5 7 1027.3 1027.4 0.0
01/05:00am 10.8 8.8 10.2 96 0.3 E 11 15 6 8 1027.0 1027.1 0.0
01/04:30am 10.2 9.1 9.9 98 0.2 ESE 6 7 3 4 1026.9 1027.0 0.0
01/04:00am 10.0 8.8 9.7 98 0.2 ESE 6 9 3 5 1026.8 1026.9 0.0
01/03:30am 10.2 8.9 9.9 98 0.2 ESE 7 9 4 5 1026.8 1026.9 0.0
01/03:00am 9.8 8.0 9.5 98 0.2 ESE 9 9 5 5 1026.9 1027.0 0.0
01/02:30am 9.9 8.5 9.6 98 0.2 ESE 7 9 4 5 1027.0 1027.1 0.0
01/02:00am 9.6 9.3 8.8 95 0.4 CALM 0 0 0 0 1027.2 1027.3 0.0
01/01:58am 9.7 9.5 8.9 95 0.4 CALM 0 0 0 0 1027.2 1027.3 0.0
01/01:30am 9.8 9.6 9.2 96 0.3 CALM 0 0 0 0 1027.3 1027.4 0.0
01/01:27am 9.8 9.6 9.2 96 0.3 CALM 0 0 0 0 1027.3 1027.4 0.0
01/01:00am 9.6 9.3 8.8 95 0.4 CALM 0 0 0 0 1027.3 1027.4 0.0
01/12:30am 9.3 7.6 8.5 95 0.4 ESE 7 9 4 5 1027.4 1027.5 0.0
01/12:00am 8.9 7.3 8.0 94 0.4 E 6 7 3 4 1027.5 1027.6 0.0
 
Date/Time
EST
Temp
°C
App
Temp
°C
Dew
Point
Rel
Hum
%
Delta-T
°C
Wind Press
QNH
hPa
Press
MSL
hPa
Rain
since 9 am
mm
Dir
 
Spd
km/h
Gust
km/h
Spd
kts
Gust
kts
31/11:30pm 9.3 7.6 8.2 93 0.5 E 7 9 4 5 1027.5 1027.6 0.0
31/11:00pm 8.8 7.0 7.9 94 0.4 E 7 11 4 6 1027.7 1027.8 0.0
31/10:58pm 8.8 7.0 7.9 94 0.4 E 7 11 4 6 1027.7 1027.8 0.0
31/10:30pm 8.8 6.2 7.6 92 0.6 ESE 11 15 6 8 1027.6 1027.7 0.0
31/10:00pm 9.5 6.6 8.3 92 0.6 ESE 13 22 7 12 1027.8 1027.9 0.0
31/09:30pm 9.2 6.1 7.2 87 1.0 E 13 17 7 9 1027.9 1028.0 0.0
31/09:00pm 8.4 4.6 5.7 83 1.2 ESE 15 17 8 9 1027.8 1027.9 0.0
31/08:30pm 9.8 7.3 5.0 72 2.2 ENE 7 11 4 6 1027.8 1027.9 0.0
31/08:00pm 9.0 6.6 4.2 72 2.1 ENE 6 11 3 6 1027.6 1027.7 0.0
31/07:30pm 9.6 6.6 4.0 68 2.5 E 9 13 5 7 1027.3 1027.4 0.0
31/07:00pm 10.0 6.9 3.5 64 2.9 E 9 11 5 6 1027.0 1027.1 0.0
31/06:30pm 10.9 7.9 4.1 63 3.1 E 9 13 5 7 1026.8 1026.9 0.0
31/06:00pm 11.7 8.4 4.7 62 3.2 E 11 17 6 9 1026.5 1026.6 0.0
31/05:30pm 11.7 8.7 4.2 60 3.4 E 9 11 5 6 1026.2 1026.3 0.0
31/05:00pm 12.3 9.0 4.5 59 3.6 ESE 11 13 6 7 1026.1 1026.2 0.0
31/04:30pm 14.5 10.9 5.0 53 4.5 ESE 13 19 7 10 1025.9 1025.9 0.0
31/04:00pm 15.8 11.5 5.4 50 5.0 ESE 17 24 9 13 1025.6 1025.7 0.0
31/03:30pm 16.3 11.5 4.7 46 5.6 ESE 19 24 10 13 1025.6 1025.7 0.0
31/03:00pm 16.9 12.3 5.5 47 5.6 ESE 19 24 10 13 1025.5 1025.6 0.0
31/02:30pm 16.7 12.3 5.0 46 5.7 SE 17 26 9 14 1025.6 1025.7 0.0
31/02:00pm 16.9 12.7 5.8 48 5.5 SE 17 24 9 13 1025.8 1025.8 0.0
31/01:30pm 16.5 12.4 6.1 50 5.2 SE 17 24 9 13 1026.0 1026.0 0.0
31/01:00pm 15.3 10.9 5.0 50 4.9 ESE 17 22 9 12 1026.3 1026.4 0.0
31/12:30pm 15.7 11.5 5.6 51 4.9 E 17 24 9 13 1026.7 1026.8 0.0
31/12:00pm 15.2 11.1 6.0 54 4.5 SE 17 24 9 13 1027.2 1027.3 0.0
31/11:30am 14.2 10.0 5.6 56 4.2 ESE 17 24 9 13 1027.9 1028.0 0.0
31/11:00am 13.6 8.8 5.7 59 3.8 ESE 20 28 11 15 1028.4 1028.6 0.0
31/10:30am 12.0 8.6 5.9 66 2.9 ESE 13 17 7 9 1028.8 1028.9 0.0
31/10:00am 10.7 7.5 5.0 68 2.6 E 11 13 6 7 1029.0 1029.1 0.0
31/09:30am 9.2 6.8 5.2 76 1.8 ENE 7 11 4 6 1029.3 1029.4 0.0
31/09:00am 7.0 5.8 4.8 86 1.0 CALM 0 0 0 0 1029.3 1029.4 0.0
31/08:30am 4.4 3.0 3.8 96 0.3 CALM 0 6 0 3 1029.1 1029.2 0.0
31/08:00am 1.5 -1.4 1.2 98 0.1 NE 6 9 3 5 1028.8 1028.9 0.0
31/07:30am -0.3 -3.1 -0.6 98 0.1 NE 4 6 2 3 1028.4 1028.6 0.0
31/07:00am -1.2 -4.2 -1.5 98 0.0 NE 4 6 2 3 1028.2 1028.3 0.0
31/06:30am -0.3 -2.4 -0.6 98 0.1 CALM 0 0 0 0 1028.0 1028.1 0.0
31/06:00am -0.7 -3.6 -1.0 98 0.1 NE 4 6 2 3 1027.7 1027.8 0.0
31/05:30am -1.5 -3.7 -1.8 98 0.0 CALM 0 0 0 0 1027.5 1027.6 0.0
31/05:00am -1.3 -3.5 -1.7 97 0.1 CALM 0 0 0 0 1027.1 1027.2 0.0
31/04:30am -0.8 -2.9 -1.1 98 0.1 CALM 0 0 0 0 1026.9 1027.0 0.0
31/04:00am -0.3 -2.4 -0.6 98 0.1 CALM 0 0 0 0 1026.8 1026.9 0.0
31/03:30am -0.4 -2.5 -1.0 96 0.2 CALM 0 0 0 0 1026.4 1026.5 0.0
31/03:00am 0.2 -1.8 -0.2 97 0.1 CALM 0 0 0 0 1026.4 1026.5 0.0
31/02:30am 0.2 -1.9 -0.5 95 0.3 CALM 0 0 0 0 1026.4 1026.5 0.0
31/02:00am 0.8 -1.2 0.2 96 0.2 CALM 0 0 0 0 1026.5 1026.6 0.0
31/01:30am 0.4 -1.7 -0.6 93 0.4 CALM 0 0 0 0 1026.7 1026.8 0.0
31/01:00am 0.8 -1.3 -0.8 89 0.6 CALM 0 0 0 0 1027.0 1027.1 0.0
31/12:30am 1.4 -0.6 -0.2 89 0.6 CALM 0 0 0 0 1027.1 1027.2 0.0
31/12:00am 2.4 0.5 0.3 86 0.8 CALM 0 0 0 0 1027.1 1027.2 0.0
 
Date/Time
EST
Temp
°C
App
Temp
°C
Dew
Point
Rel
Hum
%
Delta-T
°C
Wind Press
QNH
hPa
Press
MSL
hPa
Rain
since 9 am
mm
Dir
 
Spd
km/h
Gust
km/h
Spd
kts
Gust
kts
30/11:30pm 2.4 0.4 0.1 85 0.9 CALM 0 0 0 0 1027.0 1027.1 0.0
30/11:00pm 2.2 -0.6 -0.4 83 1.0 NE 4 6 2 3 1026.9 1027.0 0.0
30/10:30pm 3.2 1.2 -0.1 79 1.3 CALM 0 0 0 0 1026.9 1027.0 0.0
30/10:00pm 3.4 1.5 0.6 82 1.1 CALM 0 0 0 0 1026.9 1027.0 0.0
30/09:30pm 2.9 0.9 -0.2 80 1.2 CALM 0 0 0 0 1026.7 1026.8 0.0
30/09:00pm 4.0 2.1 0.3 77 1.4 CALM 0 0 0 0 1026.7 1026.8 0.0
30/08:30pm 5.2 2.1 0.4 71 1.9 NE 6 7 3 4 1026.3 1026.4 0.0
30/08:00pm 5.9 2.8 0.3 67 2.2 NE 6 7 3 4 1026.1 1026.2 0.0
30/07:30pm 6.5 3.5 0.6 66 2.4 NE 6 7 3 4 1025.8 1025.8 0.0
30/07:00pm 7.0 4.0 0.5 63 2.6 ENE 6 6 3 3 1025.5 1025.6 0.0
30/06:30pm 6.6 2.9 -0.1 62 2.7 E 9 11 5 6 1025.4 1025.5 0.0
30/06:00pm 6.6 3.2 -0.6 60 2.8 E 7 11 4 6 1025.0 1025.1 0.0
30/05:30pm 7.5 3.4 -0.5 57 3.2 ESE 11 13 6 7 1024.7 1024.8 0.0
30/05:00pm 9.5 5.3 -0.9 48 4.1 ESE 11 13 6 7 1024.5 1024.6 0.0
30/04:30pm 12.5 8.5 0.3 43 5.2 ESE 11 13 6 7 1024.1 1024.2 0.0
30/04:00pm 14.0 10.0 0.3 39 5.9 ESE 11 13 6 7 1024.0 1024.1 0.0
30/03:30pm 14.2 10.6 0.8 40 5.8 SE 9 13 5 7 1023.9 1024.0 0.0
30/03:00pm 14.5 11.1 1.8 42 5.6 ESE 9 15 5 8 1023.7 1023.7 0.0
30/02:30pm 14.3 10.5 1.9 43 5.5 ESE 11 17 6 9 1023.6 1023.6 0.0
30/02:00pm 13.9 10.1 1.5 43 5.4 ESE 11 15 6 8 1023.7 1023.7 0.0
30/01:30pm 13.6 10.4 2.8 48 4.9 ESE 9 15 5 8 1023.8 1023.9 0.0
30/01:00pm 13.1 9.7 2.1 47 4.9 ESE 9 19 5 10 1023.9 1024.0 0.0
30/12:30pm 12.0 9.2 3.3 55 3.9 NE 7 20 4 11 1024.3 1024.4 0.0
30/12:00pm 11.7 8.7 4.0 59 3.5 E 9 11 5 6 1024.8 1024.9 0.0
30/11:30am 10.2 7.5 3.5 63 3.0 S 7 11 4 6 1025.3 1025.4 0.0
30/11:00am 9.1 6.4 3.7 69 2.4 S 7 11 4 6 1025.6 1025.7 0.0
30/10:30am 7.9 5.4 3.9 76 1.8 SSE 6 11 3 6 1025.9 1025.9 0.0
30/10:00am 7.0 4.5 3.6 79 1.5 SSW 6 9 3 5 1026.0 1026.0 0.0
30/09:30am 5.8 2.6 3.1 83 1.1 W 9 11 5 6 1026.1 1026.2 0.0
30/09:00am 4.7 1.6 3.4 91 0.5 WSW 9 11 5 6 1026.0 1026.0 0.0
30/08:30am 3.7 0.9 3.4 98 0.1 W 7 9 4 5 1025.6 1025.7 0.0
30/08:00am 1.3 -0.9 1.0 98 0.1 W 2 7 1 4 1025.5 1025.6 0.0
30/07:30am -1.7 -5.1 -2.0 98 0.0 WSW 6 9 3 5 1025.2 1025.3 0.0
30/07:00am -2.8 -6.5 -3.1 98 0.0 WSW 7 9 4 5 1024.8 1024.9 0.0
30/06:30am -2.1 -5.8 -2.6 96 0.1 WSW 7 9 4 5 1024.4 1024.5 0.0
30/06:00am 0.3 -3.4 0.0 98 0.1 WNW 9 11 5 6 1023.9 1024.0 0.0
30/05:30am 0.7 -2.9 0.4 98 0.1 WNW 9 11 5 6 1023.4 1023.4 0.0
30/05:00am 0.7 -2.6 0.3 97 0.1 WNW 7 9 4 5 1023.1 1023.1 0.0
30/04:30am 1.1 -2.5 0.7 97 0.2 WNW 9 9 5 5 1023.1 1023.1 0.0
30/04:00am 1.2 -2.4 0.6 96 0.2 WNW 9 11 5 6 1023.0 1023.0 0.0
30/03:30am 1.6 -2.7 1.0 96 0.2 NW 13 13 7 7 1022.7 1022.8 0.0
30/03:00am 1.8 -2.5 1.2 96 0.2 NW 13 15 7 8 1022.6 1022.7 0.0
30/02:30am 1.9 -1.6 1.2 95 0.3 NW 9 13 5 7 1022.6 1022.7 0.0
30/02:00am 2.3 -1.2 1.4 94 0.4 WNW 9 11 5 6 1022.7 1022.8 0.0
30/01:30am 2.7 -1.1 1.8 94 0.4 WNW 11 11 6 6 1022.5 1022.6 0.0
30/01:00am 2.8 -1.4 1.9 94 0.4 NW 13 15 7 8 1022.5 1022.6 0.0
30/12:30am 3.0 -0.4 1.8 92 0.5 NW 9 13 5 7 1022.5 1022.6 0.0
30/12:00am 3.9 -0.5 2.9 93 0.4 WNW 15 19 8 10 1022.5 1022.6 0.0
 
Date/Time
EST
Temp
°C
App
Temp
°C
Dew
Point
Rel
Hum
%
Delta-T
°C
Wind Press
QNH
hPa
Press
MSL
hPa
Rain
since 9 am
mm
Dir
 
Spd
km/h
Gust
km/h
Spd
kts
Gust
kts
29/11:30pm 3.7 -0.4 2.2 90 0.6 WNW 13 15 7 8 1022.6 1022.7 0.0
29/11:00pm 4.0 0.0 3.0 93 0.4 WNW 13 15 7 8 1022.5 1022.6 0.0
29/10:30pm 4.1 0.4 2.6 90 0.6 WNW 11 13 6 7 1022.4 1022.5 0.0
29/10:00pm 4.1 0.8 2.6 90 0.6 WNW 9 13 5 7 1022.5 1022.6 0.0
29/09:30pm 4.2 0.5 2.6 89 0.7 WNW 11 13 6 7 1022.5 1022.6 0.0
29/09:00pm 4.8 1.2 2.7 86 0.9 WNW 11 15 6 8 1022.6 1022.7 0.0
29/08:30pm 5.4 1.4 3.1 85 1.0 NW 13 17 7 9 1022.5 1022.6 0.0
29/08:00pm 5.7 1.7 3.0 83 1.1 NW 13 15 7 8 1022.3 1022.4 0.0
29/07:30pm 6.2 1.9 3.4 82 1.2 NW 15 17 8 9 1022.0 1022.1 0.0
29/07:00pm 6.7 2.4 3.3 79 1.5 NNW 15 17 8 9 1021.6 1021.7 0.0
29/06:30pm 6.8 2.5 3.4 79 1.5 NNW 15 17 8 9 1021.2 1021.2 0.0
29/06:00pm 7.0 2.8 3.6 79 1.5 NW 15 17 8 9 1020.8 1020.8 0.0
29/05:30pm 7.2 2.9 3.1 75 1.8 NW 15 17 8 9 1020.6 1020.6 0.0
29/05:00pm 10.0 5.7 3.5 64 2.9 WNW 15 17 8 9 1020.3 1020.3 0.0
29/04:30pm 12.1 7.5 3.6 56 3.9 WNW 17 22 9 12 1019.7 1019.8 0.0
29/04:00pm 13.1 8.0 3.2 51 4.5 WNW 19 28 10 15 1019.6 1019.7 0.0
29/03:30pm 13.7 8.5 3.5 50 4.7 WNW 20 28 11 15 1019.4 1019.5 0.0

Other Formats:

Comma delimited format used in spreadsheet applications
http://www.bom.gov.au/fwo/IDN60801/IDN60801.95754.axf

JavaScript Object Notation format (JSON) in row-major order
http://www.bom.gov.au/fwo/IDN60801/IDN60801.95754.json